createdAt,value
2023-11-20T00:01:04.590Z,76.40
2023-11-20T00:06:06.283Z,76.29
2023-11-20T00:11:07.818Z,76.18
2023-11-20T00:16:11.397Z,75.68
2023-11-20T00:21:13.846Z,75.39
2023-11-20T00:26:15.613Z,75.06
2023-11-20T00:31:17.224Z,74.52
2023-11-20T00:36:19.880Z,74.49
2023-11-20T00:41:21.578Z,74.34
2023-11-20T00:46:23.417Z,74.31
2023-11-20T00:51:26.553Z,74.07
2023-11-20T00:56:29.757Z,74.15
2023-11-20T01:01:37.673Z,74.18
2023-11-20T01:06:41.099Z,74.57
2023-11-20T01:11:45.495Z,74.81
2023-11-20T01:16:47.085Z,74.98
2023-11-20T01:21:48.697Z,75.16
2023-11-20T01:26:50.396Z,76.00
2023-11-20T01:31:51.938Z,76.93
2023-11-20T01:36:53.589Z,77.91
2023-11-20T01:41:55.129Z,78.40
2023-11-20T01:46:57.473Z,78.62
2023-11-20T01:51:59.697Z,78.81
2023-11-20T01:57:02.811Z,79.00
2023-11-20T02:02:04.618Z,78.47
2023-11-20T02:07:09.172Z,78.60
2023-11-20T02:12:11.059Z,78.48
2023-11-20T02:17:12.583Z,77.98
2023-11-20T02:22:14.247Z,77.70
2023-11-20T02:27:46.686Z,77.22
2023-11-20T02:32:48.342Z,76.97
2023-11-20T02:37:49.903Z,76.62
2023-11-20T02:42:51.615Z,76.29
2023-11-20T02:47:53.776Z,76.20
2023-11-20T02:52:55.981Z,75.86
2023-11-20T02:57:57.733Z,75.53
2023-11-20T03:02:59.331Z,75.57
2023-11-20T03:08:01.055Z,74.94
2023-11-20T03:13:02.743Z,74.62
2023-11-20T03:18:05.122Z,74.35
2023-11-20T03:23:06.819Z,74.34
2023-11-20T03:28:08.395Z,74.28
2023-11-20T03:33:10.088Z,73.84
2023-11-20T03:38:11.690Z,73.86
2023-11-20T03:43:13.391Z,73.58
2023-11-20T03:48:15.010Z,73.32
2023-11-20T03:53:16.525Z,73.22
2023-11-20T03:58:18.100Z,73.32
2023-11-20T04:03:20.298Z,73.36
2023-11-20T04:08:22.523Z,73.54
2023-11-20T04:13:24.151Z,73.59
2023-11-20T04:18:25.771Z,73.57
2023-11-20T04:23:27.651Z,73.77
2023-11-20T04:28:32.134Z,74.05
2023-11-20T04:33:33.869Z,74.12
2023-11-20T04:38:36.807Z,74.29
2023-11-20T04:43:39.545Z,74.33
2023-11-20T04:48:41.347Z,74.30
2023-11-20T04:53:44.077Z,74.58
2023-11-20T04:58:46.347Z,74.92
2023-11-20T05:03:49.824Z,74.76
2023-11-20T05:08:51.666Z,74.96
2023-11-20T05:13:53.208Z,75.70
2023-11-20T05:18:55.021Z,76.15
2023-11-20T05:23:56.574Z,76.21
2023-11-20T05:28:58.372Z,76.08
2023-11-20T05:34:00.001Z,76.06
2023-11-20T05:39:01.758Z,75.37
2023-11-20T05:44:03.324Z,74.97
2023-11-20T05:49:05.042Z,74.71
2023-11-20T05:54:10.077Z,74.03
2023-11-20T05:59:11.614Z,73.70
2023-11-20T06:04:15.691Z,73.78
2023-11-20T06:09:17.445Z,73.28
2023-11-20T06:14:19.239Z,73.05
2023-11-20T06:19:21.137Z,72.63
2023-11-20T06:24:22.713Z,72.76
2023-11-20T06:29:24.266Z,72.66
2023-11-20T06:34:25.797Z,72.43
2023-11-20T06:39:27.966Z,72.57
2023-11-20T06:44:29.582Z,72.62
2023-11-20T06:49:31.232Z,72.43
2023-11-20T06:54:32.816Z,72.22
2023-11-20T06:59:34.526Z,72.01
2023-11-20T07:04:39.323Z,72.10
2023-11-20T07:09:40.939Z,72.08
2023-11-20T07:14:42.520Z,72.29
2023-11-20T07:19:44.019Z,71.91
2023-11-20T07:24:45.649Z,71.91
2023-11-20T07:29:47.573Z,71.72
2023-11-20T07:34:49.205Z,71.71
2023-11-20T07:39:50.782Z,71.58
2023-11-20T07:44:52.441Z,71.80
2023-11-20T07:49:53.952Z,71.74
2023-11-20T07:54:55.485Z,71.74
2023-11-20T07:59:57.048Z,71.65
2023-11-20T08:05:00.083Z,71.26
2023-11-20T08:10:05.632Z,71.80
2023-11-20T08:15:11.655Z,72.06
2023-11-20T08:20:13.181Z,71.45
2023-11-20T08:25:15.112Z,70.91
2023-11-20T08:30:16.774Z,70.42
2023-11-20T08:35:18.292Z,70.34
2023-11-20T08:40:20.003Z,70.17
2023-11-20T08:45:21.649Z,69.39
2023-11-20T08:50:26.743Z,69.28
2023-11-20T08:55:28.479Z,69.51
2023-11-20T09:00:30.122Z,69.92
2023-11-20T09:05:31.777Z,69.99
2023-11-20T09:10:33.455Z,69.80
2023-11-20T09:15:35.007Z,69.85
2023-11-20T09:20:37.458Z,69.84
2023-11-20T09:25:40.318Z,70.09
2023-11-20T09:30:42.061Z,70.60
2023-11-20T09:35:43.627Z,71.32
2023-11-20T09:40:46.320Z,71.16
2023-11-20T09:45:53.736Z,72.12
2023-11-20T09:51:07.424Z,73.37
2023-11-20T09:56:14.906Z,73.64
2023-11-20T10:01:18.654Z,73.75
2023-11-20T10:06:22.970Z,73.88
2023-11-20T10:11:24.752Z,73.76
2023-11-20T10:16:28.408Z,72.45
2023-11-20T10:21:30.875Z,69.90
2023-11-20T10:26:34.812Z,69.38
2023-11-20T10:31:46.837Z,68.51
2023-11-20T10:37:21.873Z,67.15
2023-11-20T10:42:23.680Z,67.68
2023-11-20T10:47:26.224Z,68.02
2023-11-20T10:52:31.989Z,68.41
2023-11-20T10:57:34.464Z,68.81
2023-11-20T11:02:39.299Z,69.11
2023-11-20T11:07:42.531Z,69.78
2023-11-20T11:12:45.907Z,69.64
2023-11-20T11:17:59.530Z,69.89
2023-11-20T11:23:08.522Z,70.25
2023-11-20T11:28:15.592Z,69.15
2023-11-20T11:33:36.107Z,68.44
2023-11-20T11:38:42.344Z,68.53
2023-11-20T11:44:28.199Z,68.56
2023-11-20T11:49:31.091Z,68.30
2023-11-20T11:54:33.566Z,68.43
2023-11-20T11:59:39.790Z,68.41
2023-11-20T12:04:50.887Z,68.74
2023-11-20T12:09:56.744Z,67.99
2023-11-20T12:14:58.586Z,68.36
2023-11-20T12:20:01.557Z,68.29
2023-11-20T12:25:03.671Z,68.26
2023-11-20T12:30:06.420Z,68.13
2023-11-20T12:35:11.214Z,67.12
2023-11-20T12:40:13.206Z,67.26
2023-11-20T12:45:14.891Z,67.35
2023-11-20T12:50:18.675Z,67.31
2023-11-20T12:55:21.675Z,66.87
2023-11-20T13:00:24.755Z,66.10
2023-11-20T13:05:28.884Z,65.44
2023-11-20T13:10:34.950Z,65.20
2023-11-20T13:15:36.848Z,64.17
2023-11-20T13:20:43.510Z,63.78
2023-11-20T13:25:47.339Z,64.01
2023-11-20T13:30:55.487Z,64.00
2023-11-20T13:35:58.678Z,64.01
2023-11-20T13:41:01.064Z,64.56
2023-11-20T13:46:03.331Z,65.13
2023-11-20T13:51:06.602Z,65.06
2023-11-20T13:56:08.826Z,65.53
2023-11-20T14:01:11.409Z,65.97
2023-11-20T14:06:13.269Z,67.06
2023-11-20T14:11:14.779Z,67.32
2023-11-20T14:16:16.803Z,67.48
2023-11-20T14:21:18.537Z,66.99
2023-11-20T14:26:29.595Z,66.70
2023-11-20T14:31:36.563Z,67.13
2023-11-20T14:36:38.950Z,67.42
2023-11-20T14:41:40.572Z,67.49
2023-11-20T14:46:42.321Z,67.67
2023-11-20T14:51:44.125Z,68.31
2023-11-20T14:56:45.876Z,69.55
2023-11-20T15:01:47.509Z,69.66
2023-11-20T15:06:49.099Z,69.54
2023-11-20T15:11:50.616Z,69.34
2023-11-20T15:16:52.469Z,69.42
2023-11-20T15:21:55.157Z,69.19
2023-11-20T15:26:56.772Z,68.94
2023-11-20T15:31:58.326Z,69.20
2023-11-20T15:36:59.960Z,69.30
2023-11-20T15:42:01.900Z,69.64
2023-11-20T15:47:04.378Z,69.72
2023-11-20T15:52:06.132Z,70.03
2023-11-20T15:57:08.017Z,70.50
2023-11-20T16:02:10.783Z,70.81
2023-11-20T16:07:13.326Z,71.28
2023-11-20T16:12:16.358Z,71.41
2023-11-20T16:17:18.097Z,71.57
2023-11-20T16:22:20.741Z,72.10
2023-11-20T16:27:22.486Z,72.20
2023-11-20T16:32:24.198Z,72.63
2023-11-20T16:37:26.927Z,73.40
2023-11-20T16:42:29.879Z,73.70
2023-11-20T16:47:31.555Z,73.45
2023-11-20T16:52:33.130Z,73.24
2023-11-20T16:57:34.898Z,73.01
2023-11-20T17:02:36.580Z,72.85
2023-11-20T17:07:38.646Z,72.75
2023-11-20T17:12:40.203Z,73.04
2023-11-20T17:17:41.815Z,73.19
2023-11-20T17:22:44.533Z,73.51
2023-11-20T17:27:47.172Z,73.29
2023-11-20T17:32:49.907Z,73.50
2023-11-20T17:37:51.580Z,73.07
2023-11-20T17:42:53.161Z,73.82
2023-11-20T17:47:54.799Z,74.24
2023-11-20T17:52:56.518Z,74.36
2023-11-20T17:57:58.164Z,74.50
2023-11-20T18:02:59.814Z,74.58
2023-11-20T18:08:01.418Z,74.57
2023-11-20T18:13:03.993Z,74.67
2023-11-20T18:18:06.209Z,74.94
2023-11-20T18:23:07.846Z,75.15
2023-11-20T18:28:09.516Z,75.61
2023-11-20T18:33:12.193Z,76.30
2023-11-20T18:38:13.814Z,75.99
2023-11-20T18:43:15.437Z,76.43
2023-11-20T18:48:17.837Z,76.17
2023-11-20T18:53:19.987Z,76.83
2023-11-20T18:58:21.954Z,76.93
2023-11-20T19:03:23.654Z,76.66
2023-11-20T19:08:26.555Z,76.69
2023-11-20T19:13:28.175Z,76.82
2023-11-20T19:18:31.288Z,76.67
2023-11-20T19:23:32.831Z,76.58
2023-11-20T19:28:34.357Z,76.38
2023-11-20T19:33:36.106Z,76.15
2023-11-20T19:38:39.091Z,76.19
2023-11-20T19:43:40.758Z,76.24
2023-11-20T19:48:43.604Z,76.27
2023-11-20T19:53:47.765Z,76.14
2023-11-20T19:58:49.688Z,76.04
2023-11-20T20:03:52.669Z,75.88
2023-11-20T20:08:54.452Z,76.00
2023-11-20T20:13:56.069Z,75.79
2023-11-20T20:18:59.249Z,75.49
2023-11-20T20:24:01.121Z,75.44
2023-11-20T20:29:02.777Z,75.75
2023-11-20T20:34:06.904Z,75.79
2023-11-20T20:39:09.786Z,75.57
2023-11-20T20:44:11.396Z,75.64
2023-11-20T20:49:13.140Z,75.38
2023-11-20T20:54:14.778Z,75.50
2023-11-20T20:59:17.387Z,75.46
2023-11-20T21:04:18.943Z,75.48
2023-11-20T21:09:22.004Z,75.49
2023-11-20T21:14:27.096Z,75.32
2023-11-20T21:19:29.841Z,75.74
2023-11-20T21:24:31.617Z,75.27
2023-11-20T21:29:33.260Z,75.39
2023-11-20T21:34:35.587Z,75.14
2023-11-20T21:39:37.642Z,75.13
2023-11-20T21:44:40.379Z,75.28
2023-11-20T21:49:42.449Z,75.34
2023-11-20T21:54:44.000Z,75.09
2023-11-20T21:59:45.697Z,75.37
2023-11-20T22:04:47.771Z,74.95
2023-11-20T22:09:49.370Z,75.30
2023-11-20T22:14:50.907Z,75.07
2023-11-20T22:19:52.761Z,74.68
2023-11-20T22:24:54.330Z,74.79
2023-11-20T22:29:56.119Z,74.75
2023-11-20T22:35:10.450Z,75.13
2023-11-20T22:40:17.346Z,74.95
2023-11-20T22:45:19.371Z,74.95
2023-11-20T22:50:20.997Z,74.92
2023-11-20T22:55:25.369Z,74.61
2023-11-20T23:00:29.537Z,74.62
2023-11-20T23:05:31.089Z,74.94
2023-11-20T23:10:32.705Z,75.03
2023-11-20T23:15:36.576Z,74.76
2023-11-20T23:20:38.441Z,74.56
2023-11-20T23:25:40.126Z,74.72
2023-11-20T23:30:42.376Z,74.77
2023-11-20T23:35:43.944Z,74.60
2023-11-20T23:40:48.442Z,74.17
2023-11-20T23:45:54.832Z,74.75
2023-11-20T23:50:56.731Z,74.54
2023-11-20T23:55:59.167Z,74.63
